Time;durP1;ratioP1;P1;durP2;ratioP2;P2;SDS_P1;SDS_P2;PMS_P1;PMS_P2;Temp;Humidity;BMP_temperature;BMP_pressure;BME280_temperature;BME280_humidity;BME280_pressure;Samples;Min_cycle;Max_cycle;Signal;HPM_P1;HPM_P2
2024/03/02 00:00:37;;;;;;;39.42;17.73;;;7.20;99.90;;;;;;5059450;28;20093;-72
2024/03/02 00:03:03;;;;;;;33.08;17.20;;;7.20;99.90;;;;;;5060544;28;20037;-74
2024/03/02 00:05:28;;;;;;;34.35;17.05;;;7.20;99.90;;;;;;5061255;28;20025;-71
2024/03/02 00:07:55;;;;;;;35.10;18.05;;;7.10;99.90;;;;;;5061020;28;20029;-72
2024/03/02 00:10:29;;;;;;;36.10;17.85;;;7.10;99.90;;;;;;5060298;28;20071;-71
2024/03/02 00:12:56;;;;;;;33.25;18.17;;;7.00;99.90;;;;;;5061515;28;20466;-71
2024/03/02 00:15:40;;;;;;;35.20;17.45;;;7.00;99.90;;;;;;5060416;28;20021;-73
2024/03/02 00:18:07;;;;;;;36.47;17.95;;;7.00;99.90;;;;;;5063761;28;21460;-72
2024/03/02 00:20:32;;;;;;;37.13;18.20;;;7.00;99.90;;;;;;5062246;28;20546;-73
2024/03/02 00:23:05;;;;;;;36.45;19.63;;;7.00;99.90;;;;;;5062882;28;20036;-73
2024/03/02 00:25:40;;;;;;;38.38;19.35;;;7.00;99.90;;;;;;5064079;28;20032;-73
2024/03/02 00:28:20;;;;;;;40.13;19.10;;;7.00;99.90;;;;;;5064680;28;20112;-72
2024/03/02 00:30:56;;;;;;;38.20;19.27;;;7.00;99.90;;;;;;5065051;28;20076;-71
2024/03/02 00:33:23;;;;;;;35.67;18.98;;;7.00;99.90;;;;;;5062981;28;20032;-71
2024/03/02 00:35:49;;;;;;;38.35;18.83;;;7.10;99.90;;;;;;5065193;28;20029;-70
2024/03/02 00:38:15;;;;;;;36.92;18.45;;;7.10;99.90;;;;;;5064683;28;20024;-73
2024/03/02 00:40:42;;;;;;;36.63;18.70;;;7.10;99.90;;;;;;5065352;28;20120;-73
2024/03/02 00:43:33;;;;;;;38.83;19.25;;;7.10;99.90;;;;;;5065271;28;20040;-71
2024/03/02 00:45:59;;;;;;;40.63;20.27;;;7.10;99.90;;;;;;5064979;28;20025;-72
2024/03/02 00:48:24;;;;;;;34.55;18.67;;;7.10;99.90;;;;;;5063882;28;20110;-71
2024/03/02 00:50:52;;;;;;;36.88;18.90;;;7.00;99.90;;;;;;5063419;28;20587;-73
2024/03/02 00:53:26;;;;;;;40.22;19.50;;;7.00;99.90;;;;;;5063254;28;20088;-72
2024/03/02 00:55:52;;;;;;;38.47;19.38;;;7.00;99.90;;;;;;5064993;28;20108;-72
2024/03/02 00:58:18;;;;;;;35.88;18.50;;;7.00;99.90;;;;;;5064444;28;20028;-73
2024/03/02 01:00:43;;;;;;;33.78;17.42;;;7.00;99.90;;;;;;5064631;28;20120;-73
2024/03/02 01:03:10;;;;;;;36.55;19.27;;;7.00;99.90;;;;;;5064866;28;20049;-71
2024/03/02 01:05:36;;;;;;;37.45;19.02;;;7.00;99.90;;;;;;5063941;28;20491;-72
2024/03/02 01:08:02;;;;;;;36.38;19.45;;;7.00;99.90;;;;;;5064745;28;20992;-72
2024/03/02 01:10:28;;;;;;;38.15;19.10;;;7.00;99.90;;;;;;5064473;28;20045;-71
2024/03/02 01:12:53;;;;;;;40.85;20.65;;;7.00;99.90;;;;;;5064234;28;20093;-73
2024/03/02 01:15:19;;;;;;;41.63;20.90;;;7.00;99.90;;;;;;5064039;28;20055;-73
2024/03/02 01:17:45;;;;;;;39.97;20.02;;;6.90;99.90;;;;;;5064503;28;20027;-73
2024/03/02 01:20:11;;;;;;;40.38;19.77;;;6.80;99.90;;;;;;5064414;28;20025;-73
2024/03/02 01:22:37;;;;;;;38.05;20.13;;;6.80;99.90;;;;;;5064576;28;20036;-72
2024/03/02 01:25:03;;;;;;;40.55;19.80;;;6.80;99.90;;;;;;5063144;28;20119;-72
2024/03/02 01:27:28;;;;;;;41.35;20.52;;;6.70;99.90;;;;;;5062927;28;20422;-73
2024/03/02 01:29:54;;;;;;;41.45;21.00;;;6.70;99.90;;;;;;5063038;28;20365;-73
2024/03/02 01:32:20;;;;;;;40.00;19.85;;;6.70;99.90;;;;;;5064108;28;20023;-73
2024/03/02 01:34:46;;;;;;;37.70;19.70;;;6.60;99.90;;;;;;5062829;28;20024;-73
2024/03/02 01:37:11;;;;;;;36.20;19.25;;;6.60;99.90;;;;;;5064223;28;20029;-75
2024/03/02 01:39:37;;;;;;;39.88;20.15;;;6.60;99.90;;;;;;5062654;28;20021;-73
2024/03/02 01:42:03;;;;;;;39.42;19.33;;;6.50;99.90;;;;;;5062662;28;20037;-71
2024/03/02 01:44:29;;;;;;;37.83;20.20;;;6.50;99.90;;;;;;5064148;28;20021;-72
2024/03/02 01:46:54;;;;;;;40.67;20.25;;;6.40;99.90;;;;;;5063833;28;20025;-71
2024/03/02 01:49:20;;;;;;;41.47;20.58;;;6.40;99.90;;;;;;5062310;28;20033;-72
2024/03/02 01:51:46;;;;;;;39.72;20.08;;;6.40;99.90;;;;;;5063887;28;20103;-72
2024/03/02 01:54:11;;;;;;;37.17;20.33;;;6.40;99.90;;;;;;5062536;28;20013;-73
2024/03/02 01:56:37;;;;;;;38.35;20.25;;;6.30;99.90;;;;;;5062959;28;20498;-72
2024/03/02 01:59:03;;;;;;;45.85;20.98;;;6.30;99.90;;;;;;5063791;28;20152;-73
2024/03/02 02:01:28;;;;;;;39.38;19.27;;;6.30;99.90;;;;;;5063266;28;20047;-72
2024/03/02 02:03:54;;;;;;;39.42;20.17;;;6.30;99.90;;;;;;5062410;28;20021;-71
2024/03/02 02:06:20;;;;;;;40.65;20.23;;;6.30;99.90;;;;;;5062226;28;20029;-72
2024/03/02 02:08:47;;;;;;;39.67;20.38;;;6.30;99.90;;;;;;5063102;28;20060;-72
2024/03/02 02:11:15;;;;;;;40.65;20.45;;;6.30;99.90;;;;;;5062528;28;20027;-72
2024/03/02 02:13:41;;;;;;;38.40;20.27;;;6.30;99.90;;;;;;5063572;28;20035;-72
2024/03/02 02:16:07;;;;;;;39.97;19.85;;;6.20;99.90;;;;;;5063230;28;20017;-72
2024/03/02 02:18:33;;;;;;;39.13;19.83;;;6.20;99.90;;;;;;5063357;28;20033;-71
2024/03/02 02:20:59;;;;;;;42.58;20.55;;;6.10;99.90;;;;;;5063430;28;20025;-71
2024/03/02 02:23:25;;;;;;;41.58;20.52;;;6.10;99.90;;;;;;5061428;28;20056;-71
2024/03/02 02:25:50;;;;;;;39.42;20.35;;;6.10;99.90;;;;;;5063432;28;20036;-72
2024/03/02 02:28:17;;;;;;;41.58;20.40;;;6.00;99.90;;;;;;5063035;28;20045;-71
2024/03/02 02:30:43;;;;;;;40.88;20.67;;;6.10;99.90;;;;;;5062737;28;20029;-72
2024/03/02 02:33:09;;;;;;;37.88;20.10;;;6.00;99.90;;;;;;5063324;28;20061;-71
2024/03/02 02:35:34;;;;;;;38.40;19.50;;;6.00;99.90;;;;;;5061439;28;20025;-71
2024/03/02 02:38:00;;;;;;;38.38;19.33;;;6.10;99.90;;;;;;5062810;28;20024;-71
2024/03/02 02:40:26;;;;;;;40.50;20.02;;;6.10;99.90;;;;;;5062089;28;20025;-70
2024/03/02 02:42:52;;;;;;;43.50;19.88;;;6.00;99.90;;;;;;5062387;28;20047;-72
2024/03/02 02:45:17;;;;;;;42.63;19.17;;;6.10;99.90;;;;;;5062915;28;20047;-72
2024/03/02 02:47:44;;;;;;;35.70;18.83;;;6.00;99.90;;;;;;5063154;28;20021;-71
2024/03/02 02:50:11;;;;;;;39.00;18.92;;;6.00;99.90;;;;;;5062625;28;20033;-71
2024/03/02 02:52:40;;;;;;;36.70;18.70;;;6.00;99.90;;;;;;5061576;28;20024;-71
2024/03/02 02:55:07;;;;;;;37.38;18.48;;;6.00;99.90;;;;;;5061977;28;20024;-72
2024/03/02 02:57:38;;;;;;;38.70;19.15;;;6.00;99.90;;;;;;5062320;28;20032;-71
2024/03/02 03:00:10;;;;;;;39.78;19.08;;;6.00;99.90;;;;;;5062226;28;20029;-71
2024/03/02 03:02:37;;;;;;;38.38;18.40;;;6.00;99.90;;;;;;5062116;28;20033;-71
2024/03/02 03:05:03;;;;;;;41.25;19.48;;;5.90;99.90;;;;;;5062100;28;20959;-71
2024/03/02 03:07:29;;;;;;;41.20;19.73;;;6.00;99.90;;;;;;5062521;28;20029;-72
2024/03/02 03:09:54;;;;;;;38.00;18.77;;;6.10;99.90;;;;;;5062076;28;20052;-72
2024/03/02 03:12:20;;;;;;;38.22;18.73;;;5.90;99.90;;;;;;5062239;28;20100;-71
2024/03/02 03:14:45;;;;;;;38.63;18.90;;;5.80;99.90;;;;;;5062465;28;20028;-72
2024/03/02 03:17:11;;;;;;;37.25;19.05;;;5.80;99.90;;;;;;5062185;28;20056;-73
2024/03/02 03:19:38;;;;;;;39.78;19.63;;;5.80;99.90;;;;;;5062721;28;20037;-71
2024/03/02 03:22:04;;;;;;;41.80;19.30;;;5.80;99.90;;;;;;5062027;28;20045;-71
2024/03/02 03:24:29;;;;;;;44.00;21.02;;;5.70;99.90;;;;;;5060683;28;20028;-72
2024/03/02 03:26:55;;;;;;;42.75;21.08;;;5.70;99.90;;;;;;5062275;28;20033;-71
2024/03/02 03:29:20;;;;;;;44.63;21.23;;;5.70;99.90;;;;;;5062077;28;20521;-72
2024/03/02 03:31:46;;;;;;;40.00;20.02;;;5.70;99.90;;;;;;5062125;28;20029;-72
2024/03/02 03:34:15;;;;;;;43.25;21.10;;;5.60;99.90;;;;;;5062479;28;20426;-73
2024/03/02 03:36:41;;;;;;;43.10;20.02;;;5.60;99.90;;;;;;5062028;28;20092;-71
2024/03/02 03:39:07;;;;;;;42.03;20.80;;;5.60;99.90;;;;;;5060623;28;20389;-70
2024/03/02 03:41:32;;;;;;;44.08;20.02;;;5.60;99.90;;;;;;5062266;28;20222;-71
2024/03/02 03:43:58;;;;;;;47.20;21.85;;;5.60;99.90;;;;;;5061714;28;20025;-72
2024/03/02 03:46:24;;;;;;;44.40;21.48;;;5.60;99.90;;;;;;5061768;28;20029;-72
2024/03/02 03:48:49;;;;;;;44.97;20.95;;;5.60;99.90;;;;;;5060969;28;20032;-71
2024/03/02 03:51:15;;;;;;;46.42;21.50;;;5.60;99.90;;;;;;5063088;28;20025;-73
2024/03/02 03:53:40;;;;;;;43.88;21.15;;;5.70;99.90;;;;;;5066198;28;20040;-71
2024/03/02 03:56:06;;;;;;;43.22;20.80;;;5.60;99.90;;;;;;5064943;28;20021;-71
2024/03/02 03:58:31;;;;;;;42.30;21.15;;;5.60;99.90;;;;;;5065689;28;20029;-72
2024/03/02 04:00:57;;;;;;;47.58;21.60;;;5.60;99.90;;;;;;5065880;28;20021;-72
2024/03/02 04:03:23;;;;;;;37.67;19.20;;;5.50;99.90;;;;;;5065923;28;20064;-72
2024/03/02 04:05:48;;;;;;;44.47;22.23;;;5.50;99.90;;;;;;5065521;28;20027;-72
2024/03/02 04:08:14;;;;;;;46.90;21.63;;;5.50;99.90;;;;;;5066059;28;20025;-71
2024/03/02 04:10:40;;;;;;;43.10;21.08;;;5.50;99.90;;;;;;5064301;28;20104;-73
2024/03/02 04:13:06;;;;;;;43.10;21.42;;;5.50;99.90;;;;;;5065309;28;20054;-73
2024/03/02 04:15:31;;;;;;;40.08;19.02;;;5.50;99.90;;;;;;5063876;28;20392;-73
2024/03/02 04:17:57;;;;;;;42.53;20.13;;;5.50;99.90;;;;;;5064516;28;20028;-73
2024/03/02 04:20:22;;;;;;;45.35;20.60;;;5.60;99.90;;;;;;5065344;28;20025;-73
2024/03/02 04:22:48;;;;;;;48.80;21.52;;;5.60;99.90;;;;;;5064498;28;20037;-72
2024/03/02 04:25:13;;;;;;;42.70;20.30;;;5.70;99.90;;;;;;5065483;28;20107;-73
2024/03/02 04:27:39;;;;;;;45.78;21.17;;;5.70;99.90;;;;;;5065492;28;20547;-72
2024/03/02 04:30:05;;;;;;;42.85;20.63;;;5.70;99.90;;;;;;5064255;28;20083;-73
2024/03/02 04:32:31;;;;;;;44.55;21.77;;;5.70;99.90;;;;;;5063922;28;20021;-72
2024/03/02 04:34:57;;;;;;;46.60;21.27;;;5.60;99.90;;;;;;5065190;28;20076;-73
2024/03/02 04:37:22;;;;;;;38.05;18.92;;;5.60;99.90;;;;;;5065133;28;20029;-73
2024/03/02 04:39:48;;;;;;;41.47;20.52;;;5.50;99.90;;;;;;5065197;28;20036;-73
2024/03/02 04:42:14;;;;;;;39.03;19.08;;;5.70;99.90;;;;;;5063229;28;20068;-72
2024/03/02 04:44:39;;;;;;;36.85;18.58;;;5.70;99.90;;;;;;5064278;28;20082;-73
2024/03/02 04:47:05;;;;;;;37.10;18.48;;;5.70;99.90;;;;;;5064849;28;20035;-72
2024/03/02 04:49:31;;;;;;;40.85;20.25;;;5.80;99.90;;;;;;5063981;28;20025;-73
2024/03/02 04:51:59;;;;;;;41.17;20.08;;;5.90;99.90;;;;;;5065078;28;20044;-74
2024/03/02 04:54:25;;;;;;;41.15;19.38;;;5.90;99.90;;;;;;5064388;28;20029;-72
2024/03/02 04:56:50;;;;;;;38.30;19.15;;;5.90;99.90;;;;;;5063646;28;20032;-73
2024/03/02 04:59:17;;;;;;;37.72;19.10;;;5.90;99.90;;;;;;5063752;28;20033;-73
2024/03/02 05:01:43;;;;;;;36.40;18.08;;;5.90;99.90;;;;;;5060247;28;20043;-71
2024/03/02 05:04:11;;;;;;;38.78;19.73;;;5.90;99.90;;;;;;5059465;28;20053;-72
2024/03/02 05:06:42;;;;;;;37.55;19.55;;;5.90;99.90;;;;;;5063108;28;20017;-73
2024/03/02 05:09:09;;;;;;;37.25;18.92;;;6.10;99.90;;;;;;5064282;28;20132;-73
2024/03/02 05:14:04;;;;;;;38.25;18.80;;;5.90;99.90;;;;;;5064764;28;20663;-72
2024/03/02 05:16:34;;;;;;;42.13;19.42;;;5.90;99.90;;;;;;5063611;28;20059;-72
2024/03/02 05:18:59;;;;;;;39.33;18.90;;;5.80;99.90;;;;;;5064165;28;20039;-72
2024/03/02 05:21:25;;;;;;;35.72;18.02;;;5.90;99.90;;;;;;5063118;28;20477;-72
2024/03/02 05:23:50;;;;;;;34.47;18.00;;;5.80;99.90;;;;;;5064054;28;20033;-73
2024/03/02 05:26:16;;;;;;;34.60;18.13;;;5.80;99.90;;;;;;5063354;28;20021;-72
2024/03/02 05:28:42;;;;;;;38.75;18.42;;;5.70;99.90;;;;;;5063310;28;20500;-73
2024/03/02 05:31:11;;;;;;;34.95;18.08;;;5.70;99.90;;;;;;5062366;28;20489;-72
2024/03/02 05:33:40;;;;;;;38.70;18.40;;;5.70;99.90;;;;;;5061595;28;20099;-73
2024/03/02 05:36:06;;;;;;;38.17;20.13;;;5.60;99.90;;;;;;5064037;28;20044;-73
2024/03/02 05:38:34;;;;;;;40.53;19.52;;;5.60;99.90;;;;;;5060023;28;20040;-74
2024/03/02 05:40:59;;;;;;;41.13;19.95;;;5.60;99.90;;;;;;5060531;28;20025;-72
2024/03/02 05:43:25;;;;;;;37.45;19.13;;;5.60;99.90;;;;;;5062638;28;20397;-72
2024/03/02 05:45:51;;;;;;;38.67;19.52;;;5.60;99.90;;;;;;5062611;28;20028;-73
2024/03/02 05:48:16;;;;;;;38.00;18.25;;;5.50;99.90;;;;;;5064040;28;20021;-72
2024/03/02 05:50:42;;;;;;;37.72;19.13;;;5.50;99.90;;;;;;5062685;28;20029;-74
2024/03/02 05:53:07;;;;;;;34.28;17.75;;;5.50;99.90;;;;;;5062361;28;20055;-72
2024/03/02 05:55:33;;;;;;;35.22;18.30;;;5.50;99.90;;;;;;5064003;28;20088;-73
2024/03/02 06:00:24;;;;;;;36.22;17.95;;;5.50;99.90;;;;;;5063561;28;20041;-73
2024/03/02 06:02:49;;;;;;;33.33;17.88;;;5.50;99.90;;;;;;5063782;28;20045;-73
2024/03/02 06:05:17;;;;;;;35.65;19.33;;;5.40;99.90;;;;;;5063287;28;20040;-74
2024/03/02 06:07:43;;;;;;;35.38;19.08;;;5.40;99.90;;;;;;5063710;28;20112;-74
2024/03/02 06:10:09;;;;;;;36.45;19.08;;;5.40;99.90;;;;;;5063079;28;20501;-72
2024/03/02 06:12:34;;;;;;;40.92;19.65;;;5.40;99.90;;;;;;5063056;28;20032;-73
2024/03/02 06:15:00;;;;;;;37.17;18.85;;;5.40;99.90;;;;;;5063314;28;20047;-72
2024/03/02 06:17:25;;;;;;;36.10;18.33;;;5.40;99.90;;;;;;5063199;28;20021;-73
2024/03/02 06:19:51;;;;;;;34.95;17.60;;;5.30;99.90;;;;;;5061363;28;20025;-73
2024/03/02 06:22:17;;;;;;;36.03;18.48;;;5.30;99.90;;;;;;5063196;28;20071;-72
2024/03/02 06:24:42;;;;;;;31.77;16.52;;;5.30;99.90;;;;;;5063207;28;20025;-73
2024/03/02 06:27:08;;;;;;;34.30;16.63;;;5.30;99.90;;;;;;5063259;28;20409;-73
2024/03/02 06:29:33;;;;;;;33.97;16.83;;;5.30;99.90;;;;;;5061964;28;20085;-73
2024/03/02 06:31:59;;;;;;;36.47;18.25;;;5.30;99.90;;;;;;5059626;28;20067;-71
2024/03/02 06:34:25;;;;;;;37.78;18.77;;;5.30;99.90;;;;;;5062685;28;21419;-73
2024/03/02 06:36:51;;;;;;;36.63;18.02;;;5.30;99.90;;;;;;5061834;28;20386;-72
2024/03/02 06:39:16;;;;;;;32.40;17.27;;;5.40;99.90;;;;;;5061919;28;20108;-73
2024/03/02 06:41:47;;;;;;;36.03;18.27;;;5.30;99.90;;;;;;5059667;28;20017;-74
2024/03/02 06:44:13;;;;;;;37.13;17.83;;;5.40;99.90;;;;;;5062923;28;20027;-71
2024/03/02 06:46:38;;;;;;;35.65;17.75;;;5.50;99.90;;;;;;5062597;28;20076;-73
2024/03/02 06:49:04;;;;;;;37.80;18.50;;;5.50;99.90;;;;;;5058816;28;20029;-73
2024/03/02 06:51:30;;;;;;;35.63;19.10;;;5.50;99.90;;;;;;5058784;28;20044;-73
2024/03/02 06:53:55;;;;;;;34.38;17.90;;;5.60;99.90;;;;;;5059527;28;20055;-73
2024/03/02 06:56:21;;;;;;;36.35;18.25;;;5.60;99.90;;;;;;5061512;28;20028;-72
2024/03/02 06:58:47;;;;;;;36.20;17.58;;;5.70;99.90;;;;;;5061171;28;20099;-73
2024/03/02 07:01:12;;;;;;;42.63;18.02;;;5.70;99.90;;;;;;5059427;28;20040;-73
2024/03/02 07:03:39;;;;;;;39.55;17.92;;;5.80;99.90;;;;;;5060067;28;20143;-70
2024/03/02 07:06:05;;;;;;;38.05;18.55;;;5.70;99.90;;;;;;5061969;28;20025;-73
2024/03/02 07:08:31;;;;;;;36.38;18.45;;;5.80;99.90;;;;;;5062459;28;20025;-72
2024/03/02 07:10:57;;;;;;;35.97;18.67;;;5.80;99.90;;;;;;5060245;28;20124;-71
2024/03/02 07:13:22;;;;;;;38.60;19.38;;;5.90;99.90;;;;;;5061572;28;20433;-72
2024/03/02 07:18:20;;;;;;;37.40;17.95;;;6.00;99.90;;;;;;5062224;28;20032;-73
2024/03/02 07:20:45;;;;;;;37.58;18.40;;;6.10;99.90;;;;;;5057138;28;20022;-72
2024/03/02 07:23:11;;;;;;;37.50;18.92;;;6.20;99.90;;;;;;5061830;28;20119;-72
2024/03/02 07:25:36;;;;;;;37.65;19.00;;;6.40;99.90;;;;;;5061012;28;20473;-72
2024/03/02 07:28:04;;;;;;;34.90;18.27;;;6.30;99.90;;;;;;5060425;28;20077;-71
2024/03/02 07:30:29;;;;;;;33.75;17.73;;;6.40;99.90;;;;;;5057582;28;20023;-73
2024/03/02 07:32:55;;;;;;;39.33;18.38;;;6.60;99.90;;;;;;5057414;28;20057;-71
2024/03/02 07:35:22;;;;;;;34.75;17.42;;;6.60;99.90;;;;;;5058679;28;20021;-73
2024/03/02 07:37:47;;;;;;;36.28;18.40;;;6.60;99.90;;;;;;5057764;28;20025;-73
2024/03/02 07:40:14;;;;;;;36.03;18.48;;;6.60;99.90;;;;;;5060659;28;20036;-73
2024/03/02 07:42:40;;;;;;;36.97;18.55;;;6.70;99.90;;;;;;5060760;28;20060;-72
2024/03/02 07:45:06;;;;;;;34.78;17.85;;;6.80;99.90;;;;;;5057186;28;20025;-73
2024/03/02 07:47:34;;;;;;;33.92;17.15;;;6.90;99.90;;;;;;5060704;28;20139;-71
2024/03/02 07:49:59;;;;;;;33.00;17.50;;;6.90;99.90;;;;;;5056465;28;20021;-71
2024/03/02 07:52:25;;;;;;;34.42;18.15;;;7.00;99.90;;;;;;5059162;28;20028;-71
2024/03/02 07:54:50;;;;;;;38.47;18.05;;;7.00;99.90;;;;;;5059697;28;20036;-72
2024/03/02 07:57:16;;;;;;;36.55;19.48;;;7.10;99.90;;;;;;5058062;28;20017;-71
2024/03/02 07:59:42;;;;;;;36.17;19.27;;;7.10;99.90;;;;;;5060840;28;20033;-73
2024/03/02 08:02:08;;;;;;;37.63;19.23;;;7.10;99.90;;;;;;5059586;28;20055;-72
2024/03/02 08:04:34;;;;;;;35.42;19.35;;;7.10;99.90;;;;;;5059699;28;20085;-73
2024/03/02 08:07:00;;;;;;;37.67;18.85;;;7.20;99.90;;;;;;5059481;28;20021;-72
2024/03/02 08:09:28;;;;;;;38.35;18.05;;;7.10;99.90;;;;;;5057448;28;20056;-74
2024/03/02 08:11:53;;;;;;;37.60;19.20;;;7.20;99.90;;;;;;5059820;28;20056;-72
2024/03/02 08:14:19;;;;;;;35.03;18.58;;;7.30;99.90;;;;;;5057900;28;20025;-71
2024/03/02 08:16:45;;;;;;;46.72;20.67;;;7.30;99.90;;;;;;5060232;28;20043;-71
2024/03/02 08:19:11;;;;;;;41.83;20.65;;;7.30;99.90;;;;;;5059985;28;20029;-72
2024/03/02 08:21:37;;;;;;;39.25;20.30;;;7.40;99.90;;;;;;5058199;28;20051;-72
2024/03/02 08:24:03;;;;;;;36.33;19.10;;;7.40;99.90;;;;;;5054032;28;20048;-73
2024/03/02 08:26:29;;;;;;;35.83;19.55;;;7.40;99.90;;;;;;5056106;28;20029;-71
2024/03/02 08:28:55;;;;;;;37.28;19.52;;;7.50;99.90;;;;;;5058665;28;20032;-72
2024/03/02 08:31:21;;;;;;;33.95;17.63;;;7.50;99.90;;;;;;5060549;28;20089;-73
2024/03/02 08:33:46;;;;;;;34.03;17.85;;;7.60;99.90;;;;;;5059646;28;20022;-72
2024/03/02 08:36:12;;;;;;;38.60;18.23;;;7.60;99.90;;;;;;5060958;28;20028;-72
2024/03/02 08:38:38;;;;;;;35.05;18.10;;;7.70;99.90;;;;;;5064431;28;20025;-71
2024/03/02 08:41:04;;;;;;;39.38;19.20;;;7.70;99.90;;;;;;5061752;28;20043;-72
2024/03/02 08:43:30;;;;;;;37.53;18.85;;;7.80;99.90;;;;;;5062520;28;20029;-71
2024/03/02 08:45:56;;;;;;;36.60;18.95;;;7.80;99.90;;;;;;5062212;28;20070;-73
2024/03/02 08:48:22;;;;;;;35.90;17.63;;;7.90;99.90;;;;;;5063740;28;20024;-73
2024/03/02 08:50:47;;;;;;;36.00;18.65;;;8.00;99.90;;;;;;5061639;28;20021;-72
2024/03/02 08:53:13;;;;;;;36.70;18.80;;;8.00;99.90;;;;;;5063297;28;20037;-73
2024/03/02 08:55:39;;;;;;;39.72;19.67;;;8.20;99.90;;;;;;5057150;28;20017;-71
2024/03/02 08:58:04;;;;;;;34.10;16.90;;;8.40;99.90;;;;;;5058780;28;20032;-72
2024/03/02 09:00:30;;;;;;;34.13;18.02;;;8.60;99.90;;;;;;5064852;28;20021;-72
2024/03/02 09:02:55;;;;;;;34.60;18.25;;;8.90;99.90;;;;;;5064687;28;20028;-72
2024/03/02 09:05:21;;;;;;;34.17;19.10;;;9.10;99.90;;;;;;5064655;28;20024;-72
2024/03/02 09:07:46;;;;;;;31.85;17.27;;;9.30;99.90;;;;;;5064982;28;20052;-74
2024/03/02 09:10:12;;;;;;;33.03;18.90;;;9.40;99.90;;;;;;5064532;28;20037;-72
2024/03/02 09:12:38;;;;;;;29.90;16.75;;;9.60;99.90;;;;;;5063039;28;20043;-72
2024/03/02 09:15:05;;;;;;;29.52;17.00;;;9.90;99.90;;;;;;5059168;28;20032;-72
2024/03/02 09:17:31;;;;;;;28.60;16.38;;;10.10;99.90;;;;;;5062897;28;20088;-73
2024/03/02 09:19:57;;;;;;;29.33;16.35;;;10.30;99.90;;;;;;5064390;28;20025;-73
2024/03/02 09:22:23;;;;;;;32.78;17.38;;;10.40;99.90;;;;;;5060570;28;20028;-72
2024/03/02 09:24:48;;;;;;;33.85;18.05;;;10.50;99.90;;;;;;5059292;28;20112;-74
2024/03/02 09:27:14;;;;;;;30.83;16.45;;;10.70;99.90;;;;;;5060943;28;20037;-72
2024/03/02 09:29:39;;;;;;;30.55;16.42;;;10.80;99.90;;;;;;5061199;28;20064;-75
2024/03/02 09:32:06;;;;;;;30.33;15.15;;;11.00;99.90;;;;;;5060485;28;20036;-74
2024/03/02 09:34:32;;;;;;;30.20;15.98;;;11.10;99.90;;;;;;5061360;28;20025;-72
2024/03/02 09:36:58;;;;;;;29.67;16.73;;;11.10;99.90;;;;;;5064258;28;20100;-73
2024/03/02 09:39:25;;;;;;;29.55;15.20;;;11.10;99.90;;;;;;5063437;28;20025;-72
2024/03/02 09:41:50;;;;;;;31.55;16.38;;;11.10;99.90;;;;;;5064010;28;20686;-73
2024/03/02 09:44:16;;;;;;;28.67;15.18;;;11.10;99.90;;;;;;5063200;28;20055;-72
2024/03/02 09:46:43;;;;;;;25.17;13.75;;;11.10;99.90;;;;;;5064043;28;20027;-74
2024/03/02 09:49:10;;;;;;;26.63;14.68;;;11.10;99.90;;;;;;5061345;28;21186;-73
2024/03/02 09:51:37;;;;;;;23.52;14.18;;;11.10;99.90;;;;;;5062317;28;20036;-72
2024/03/02 09:54:03;;;;;;;29.45;16.25;;;11.20;99.90;;;;;;5062384;28;20029;-72
2024/03/02 09:56:28;;;;;;;25.85;14.00;;;11.20;99.90;;;;;;5057105;28;20025;-73
2024/03/02 09:58:54;;;;;;;25.15;13.98;;;11.30;99.90;;;;;;5061183;28;20120;-73
2024/03/02 10:01:19;;;;;;;24.38;13.27;;;11.40;99.90;;;;;;5061811;28;20083;-75
2024/03/02 10:03:49;;;;;;;24.90;13.90;;;11.40;99.90;;;;;;5062620;28;20070;-72
2024/03/02 10:06:22;;;;;;;25.63;14.85;;;11.40;99.90;;;;;;5052093;28;20031;-74
2024/03/02 10:08:48;;;;;;;23.83;14.18;;;11.50;99.90;;;;;;5058949;28;20454;-72
2024/03/02 10:11:36;;;;;;;26.02;13.48;;;11.60;99.90;;;;;;5059167;28;20029;-74
2024/03/02 10:14:08;;;;;;;23.77;13.65;;;11.70;99.90;;;;;;5059048;28;20048;-73
2024/03/02 10:16:42;;;;;;;26.05;13.82;;;11.90;99.90;;;;;;5059154;28;20033;-76
2024/03/02 10:19:21;;;;;;;24.55;13.77;;;12.10;99.90;;;;;;5060123;28;20067;-71
2024/03/02 10:21:49;;;;;;;27.38;14.23;;;12.20;99.90;;;;;;5062426;28;20032;-73
2024/03/02 10:24:18;;;;;;;23.00;12.60;;;12.50;99.90;;;;;;5061693;28;20025;-73
2024/03/02 10:26:44;;;;;;;29.25;15.45;;;12.60;99.90;;;;;;5063079;28;20048;-72
2024/03/02 10:29:11;;;;;;;24.70;14.57;;;12.80;99.90;;;;;;5060387;28;20025;-74
2024/03/02 10:31:38;;;;;;;19.02;11.02;;;12.90;99.90;;;;;;5058385;28;20036;-72
2024/03/02 10:34:04;;;;;;;22.80;12.75;;;13.10;99.90;;;;;;5062668;28;20114;-71
2024/03/02 10:36:29;;;;;;;21.73;13.05;;;13.30;99.90;;;;;;5053884;28;20021;-70
2024/03/02 10:38:59;;;;;;;24.10;14.75;;;13.50;99.90;;;;;;5062846;28;20025;-71
2024/03/02 10:41:26;;;;;;;22.38;13.07;;;13.60;99.90;;;;;;5060655;28;20036;-71
2024/03/02 10:43:59;;;;;;;22.50;13.95;;;13.80;99.90;;;;;;5061812;28;20041;-74
2024/03/02 10:46:29;;;;;;;20.95;13.07;;;14.00;99.90;;;;;;5062602;28;20079;-72
2024/03/02 10:48:58;;;;;;;21.83;12.85;;;14.20;99.90;;;;;;5062605;28;20077;-72
2024/03/02 10:51:28;;;;;;;23.45;13.73;;;14.20;99.90;;;;;;5060744;28;20032;-73
2024/03/02 10:53:54;;;;;;;21.65;12.55;;;14.30;99.90;;;;;;5061103;28;20086;-73
2024/03/02 10:56:40;;;;;;;23.75;12.70;;;14.50;99.90;;;;;;5060639;28;20025;-70
2024/03/02 10:59:28;;;;;;;19.25;12.15;;;14.60;99.90;;;;;;5062141;28;20036;-72
2024/03/02 11:02:00;;;;;;;23.90;12.27;;;14.50;99.90;;;;;;5061138;28;20031;-71
2024/03/02 11:04:29;;;;;;;22.98;12.32;;;14.70;99.90;;;;;;5062352;28;20040;-73
2024/03/02 11:07:09;;;;;;;22.65;13.30;;;14.80;99.90;;;;;;5061325;28;20385;-73
2024/03/02 11:09:58;;;;;;;19.33;11.35;;;15.10;99.90;;;;;;5061965;28;20049;-72
2024/03/02 11:12:36;;;;;;;19.38;10.88;;;15.30;99.90;;;;;;5061290;28;20067;-73
2024/03/02 11:15:07;;;;;;;20.00;11.80;;;15.40;99.90;;;;;;5060678;28;20052;-73
2024/03/02 11:17:33;;;;;;;19.33;12.30;;;15.40;99.90;;;;;;5062167;28;20128;-72
2024/03/02 11:19:59;;;;;;;23.73;13.07;;;15.60;99.90;;;;;;5058385;28;20029;-73
2024/03/02 11:22:26;;;;;;;20.55;12.77;;;15.60;99.90;;;;;;5060002;28;20094;-71
2024/03/02 11:24:52;;;;;;;21.02;11.90;;;15.70;99.90;;;;;;5059617;28;20021;-72
2024/03/02 11:27:46;;;;;;;21.50;13.00;;;15.70;99.90;;;;;;5061472;28;20056;-74
2024/03/02 11:30:34;;;;;;;19.70;12.38;;;15.60;99.90;;;;;;5061485;28;20025;-75
2024/03/02 11:33:10;;;;;;;18.98;11.93;;;15.60;99.90;;;;;;5060886;28;20049;-72
2024/03/02 11:35:46;;;;;;;21.70;12.68;;;15.80;99.90;;;;;;5060649;28;20025;-73
2024/03/02 11:38:12;;;;;;;21.23;12.50;;;16.00;99.90;;;;;;5061683;28;20029;-74
2024/03/02 11:40:39;;;;;;;20.38;11.25;;;16.30;99.90;;;;;;5059153;28;20031;-73
2024/03/02 11:43:06;;;;;;;23.92;12.93;;;16.50;99.90;;;;;;5057762;28;20041;-74
2024/03/02 11:45:33;;;;;;;19.58;12.40;;;16.60;99.90;;;;;;5059879;28;20476;-74
2024/03/02 11:47:59;;;;;;;18.17;12.00;;;16.70;99.90;;;;;;5058439;28;20021;-73
2024/03/02 11:50:38;;;;;;;16.30;10.95;;;17.00;99.90;;;;;;5058562;28;20029;-71
2024/03/02 11:53:10;;;;;;;17.92;10.57;;;17.20;99.90;;;;;;5060195;28;20140;-72
2024/03/02 11:55:37;;;;;;;19.17;10.90;;;17.40;99.90;;;;;;5061798;28;20033;-71
2024/03/02 11:58:04;;;;;;;15.60;10.43;;;17.40;99.90;;;;;;5058334;28;20044;-74
2024/03/02 12:00:29;;;;;;;18.02;11.80;;;17.70;99.90;;;;;;5058843;28;20021;-71
2024/03/02 12:03:03;;;;;;;17.52;11.40;;;18.00;99.90;;;;;;5057393;28;20083;-72
2024/03/02 12:05:30;;;;;;;19.50;11.70;;;18.20;99.90;;;;;;5058018;28;20702;-73
2024/03/02 12:08:01;;;;;;;18.92;10.85;;;18.30;99.90;;;;;;5058541;28;20037;-74
2024/03/02 12:10:28;;;;;;;16.15;11.10;;;18.40;99.90;;;;;;5061197;28;20045;-73
2024/03/02 12:13:06;;;;;;;16.25;10.35;;;18.40;99.90;;;;;;5062232;28;20084;-72
2024/03/02 12:15:34;;;;;;;17.13;11.07;;;18.50;99.90;;;;;;5064751;28;20033;-74
2024/03/02 12:18:01;;;;;;;15.32;10.18;;;18.50;99.90;;;;;;5062887;28;20037;-73
2024/03/02 12:20:29;;;;;;;17.20;11.10;;;18.30;99.90;;;;;;5065110;28;20085;-72
2024/03/02 12:22:58;;;;;;;16.58;10.45;;;18.40;99.90;;;;;;5062136;28;20045;-75
2024/03/02 12:25:24;;;;;;;18.00;10.18;;;18.60;99.90;;;;;;5059907;28;20045;-72
2024/03/02 12:27:55;;;;;;;17.40;10.88;;;18.50;99.90;;;;;;5062437;28;20028;-73
2024/03/02 12:30:21;;;;;;;15.93;10.07;;;18.60;99.90;;;;;;5060419;28;20133;-74
2024/03/02 12:32:47;;;;;;;15.85;9.93;;;18.70;99.90;;;;;;5064161;28;20033;-73
2024/03/02 12:35:17;;;;;;;14.95;10.02;;;18.90;99.90;;;;;;5061682;28;20028;-74
2024/03/02 12:37:44;;;;;;;16.30;10.02;;;19.20;99.90;;;;;;5064113;28;20028;-74
2024/03/02 12:40:11;;;;;;;16.65;10.32;;;19.30;99.90;;;;;;5059824;28;20025;-74